Time;durP1;ratioP1;P1;durP2;ratioP2;P2;SDS_P1;SDS_P2;PMS_P1;PMS_P2;Temp;Humidity;BMP_temperature;BMP_pressure;BME280_temperature;BME280_humidity;BME280_pressure;Samples;Min_cycle;Max_cycle;Signal;HPM_P1;HPM_P2
2023/03/11 07:53:44;;;;;;;;;8.75;6.25;;;;;5.88;100.00;100848.97;4941889;26;50113;-65
2023/03/11 07:56:11;;;;;;;;;8.25;6.50;;;;;5.76;100.00;100801.59;4956431;28;49950;-66
2023/03/11 07:58:37;;;;;;;;;10.25;7.25;;;;;6.15;100.00;100856.16;4952546;28;49827;-73
2023/03/11 08:01:17;;;;;;;;;10.50;7.25;;;;;6.37;100.00;100883.97;4961306;28;50019;-66
2023/03/11 08:03:44;;;;;;;;;9.00;6.75;;;;;6.12;100.00;100856.06;4953583;28;49719;-67
2023/03/11 08:06:21;;;;;;;;;8.50;7.00;;;;;6.43;100.00;100887.72;4953244;28;52721;-67
2023/03/11 08:08:48;;;;;;;;;9.50;7.50;;;;;6.53;100.00;100909.84;4970135;28;49819;-67
2023/03/11 08:11:15;;;;;;;;;8.25;7.00;;;;;6.39;100.00;100872.78;4952707;28;49854;-68
2023/03/11 08:13:41;;;;;;;;;13.75;9.75;;;;;6.67;100.00;100903.44;4970258;28;49819;-67
2023/03/11 08:16:08;;;;;;;;;9.25;7.00;;;;;6.34;100.00;100855.19;4952889;28;50719;-66
2023/03/11 08:18:34;;;;;;;;;9.25;6.00;;;;;6.72;100.00;100894.06;4953133;28;50001;-68
2023/03/11 08:21:07;;;;;;;;;8.00;7.75;;;;;6.70;100.00;100894.84;4970358;28;49602;-73
2023/03/11 08:23:33;;;;;;;;;5.75;5.00;;;;;6.75;100.00;100878.50;4970673;28;49811;-67
2023/03/11 08:26:02;;;;;;;;;5.50;5.50;;;;;6.99;100.00;100895.94;4970512;28;50810;-67
2023/03/11 08:28:28;;;;;;;;;9.00;6.50;;;;;6.31;100.00;100781.22;4953194;28;50031;-67
2023/03/11 08:30:53;;;;;;;;;10.00;7.25;;;;;6.89;100.00;100863.41;4970014;28;50793;-66
2023/03/11 08:33:18;;;;;;;;;7.75;7.75;;;;;6.87;100.00;100849.41;4970488;28;49744;-67
2023/03/11 08:35:44;;;;;;;;;9.25;9.25;;;;;6.89;100.00;100866.91;4951968;28;51994;-67
2023/03/11 08:38:09;;;;;;;;;9.25;7.00;;;;;7.17;100.00;100875.75;4970720;28;49711;-67
2023/03/11 08:40:34;;;;;;;;;6.75;6.25;;;;;6.78;100.00;100782.13;4969974;28;49649;-73
2023/03/11 08:43:00;;;;;;;;;9.25;5.75;;;;;7.23;100.00;100856.78;4970699;28;49841;-69
2023/03/11 08:45:25;;;;;;;;;7.00;7.00;;;;;7.14;100.00;100846.88;4969145;28;49873;-70
2023/03/11 08:47:50;;;;;;;;;6.00;6.00;;;;;7.33;100.00;100878.03;4968792;28;58276;-74
2023/03/11 08:50:18;;;;;;;;;6.75;6.25;;;;;7.59;100.00;100898.97;4951622;28;49784;-68
2023/03/11 08:52:43;;;;;;;;;8.00;5.50;;;;;7.51;100.00;100903.94;4969877;28;49860;-67
2023/03/11 08:55:13;;;;;;;;;8.25;6.00;;;;;7.50;100.00;100883.88;4969757;28;49993;-66
2023/03/11 08:57:38;;;;;;;;;8.25;8.25;;;;;7.11;100.00;100825.91;4970104;28;49830;-67
2023/03/11 09:00:07;;;;;;;;;7.50;7.50;;;;;7.29;100.00;100852.66;4970427;28;49861;-72
2023/03/11 09:02:32;;;;;;;;;8.25;7.00;;;;;7.08;100.00;100820.59;4970560;28;49608;-68
2023/03/11 09:04:58;;;;;;;;;5.25;5.25;;;;;7.31;100.00;100858.84;4969372;28;51001;-75
2023/03/11 09:07:23;;;;;;;;;7.00;7.00;;;;;7.49;100.00;100881.22;4968934;28;49620;-66
2023/03/11 09:09:49;;;;;;;;;8.25;7.00;;;;;7.27;100.00;100851.72;4970015;28;49675;-78
2023/03/11 09:12:14;;;;;;;;;6.25;6.25;;;;;7.44;100.00;100886.28;4985164;28;50061;-70
2023/03/11 09:14:40;;;;;;;;;8.25;7.00;;;;;6.88;100.00;100785.94;4969967;28;50717;-67
2023/03/11 09:17:06;;;;;;;;;7.25;7.25;;;;;7.43;100.00;100901.06;4970122;28;49596;-65
2023/03/11 09:19:32;;;;;;;;;8.50;5.50;;;;;7.33;100.00;100874.53;4970412;28;49675;-67
2023/03/11 09:22:01;;;;;;;;;7.75;7.75;;;;;7.54;100.00;100909.28;4970105;28;49868;-68
2023/03/11 09:24:26;;;;;;;;;4.00;2.75;;;;;7.52;100.00;100886.53;4945259;28;50017;-72
2023/03/11 09:26:52;;;;;;;;;10.75;10.25;;;;;7.49;100.00;100876.00;4954915;28;49623;-68
2023/03/11 09:29:17;;;;;;;;;5.25;5.25;;;;;7.82;100.00;100907.63;4954720;28;49789;-74
2023/03/11 09:31:42;;;;;;;;;13.25;8.50;;;;;7.65;100.00;100873.09;4953504;28;50624;-71
2023/03/11 09:34:11;;;;;;;;;11.50;8.00;;;;;7.92;100.00;100913.22;4954549;28;49826;-77
2023/03/11 09:36:36;;;;;;;;;11.25;7.75;;;;;7.93;100.00;100891.47;4954020;28;49587;-64
2023/03/11 09:39:01;;;;;;;;;12.00;11.75;;;;;7.86;100.00;100858.13;4954627;28;50210;-69
2023/03/11 09:41:48;;;;;;;;;7.75;7.75;;;;;8.09;100.00;100911.16;4954488;28;53614;-67
2023/03/11 09:44:34;;;;;;;;;10.25;9.25;;;;;8.21;100.00;100908.97;4954285;28;50120;-69
2023/03/11 09:47:18;;;;;;;;;7.25;7.25;;;;;8.34;100.00;100915.47;4954304;28;49759;-69
2023/03/11 09:49:57;;;;;;;;;7.00;7.00;;;;;8.49;100.00;100909.84;4954510;28;49796;-69
2023/03/11 09:52:34;;;;;;;;;9.75;7.75;;;;;8.48;100.00;100882.81;4954439;28;50083;-74
2023/03/11 09:55:04;;;;;;;;;12.25;8.75;;;;;8.69;100.00;100898.31;4953857;28;50668;-73
2023/03/11 09:57:35;;;;;;;;;6.25;6.25;;;;;8.94;100.00;100919.97;4953079;28;49932;-74
2023/03/11 10:00:03;;;;;;;;;7.50;7.50;;;;;8.69;100.00;100853.81;4952673;28;49850;-76
2023/03/11 10:02:31;;;;;;;;;10.75;8.00;;;;;8.78;100.00;100863.63;4953004;28;50037;-74
2023/03/11 10:05:13;;;;;;;;;9.00;6.00;;;;;9.01;100.00;100857.34;4953518;28;49754;-72
2023/03/11 10:07:40;;;;;;;;;5.00;4.50;;;;;9.26;100.00;100886.84;4952881;28;49790;-75
2023/03/11 10:10:13;;;;;;;;;10.00;7.75;;;;;9.24;100.00;100896.38;4954032;28;49707;-73
2023/03/11 10:12:47;;;;;;;;;6.25;6.25;;;;;9.27;98.18;100918.34;4954344;28;49851;-81
2023/03/11 10:15:16;;;;;;;;;8.50;8.50;;;;;8.75;99.31;100867.06;4952592;28;51740;-75
2023/03/11 10:17:45;;;;;;;;;8.25;8.25;;;;;9.30;100.00;100947.25;4952739;28;49713;-68
2023/03/11 10:20:21;;;;;;;;;6.00;6.00;;;;;9.29;100.00;100900.03;4953638;28;49820;-70
2023/03/11 10:23:18;;;;;;;;;8.00;6.50;;;;;9.49;99.67;100926.81;4954149;28;49917;-70
2023/03/11 10:26:04;;;;;;;;;7.25;6.75;;;;;9.53;99.61;100921.66;4953774;28;49760;-66
2023/03/11 10:28:35;;;;;;;;;6.25;6.25;;;;;9.78;99.88;100915.38;4968758;28;49975;-68
2023/03/11 10:31:25;;;;;;;;;8.75;7.00;;;;;9.91;99.16;100924.44;4953882;28;49691;-69
2023/03/11 10:34:01;;;;;;;;;5.25;5.25;;;;;9.66;95.61;100909.81;4945634;28;50082;-69
2023/03/11 10:36:36;;;;;;;;;8.00;7.00;;;;;9.17;100.00;100822.91;4952710;28;50850;-74
2023/03/11 10:39:04;;;;;;;;;6.00;6.00;;;;;9.51;93.52;100928.59;4970003;28;50011;-72
2023/03/11 10:41:43;;;;;;;;;7.00;6.50;;;;;9.34;97.14;100899.31;4972163;28;49955;-69
2023/03/11 10:44:22;;;;;;;;;6.25;5.75;;;;;9.38;97.70;100854.03;4971774;28;49735;-66
2023/03/11 10:46:48;;;;;;;;;12.00;9.00;;;;;9.96;96.29;100928.97;4971634;28;50691;-66
2023/03/11 10:49:15;;;;;;;;;9.25;7.25;;;;;10.07;94.63;100926.59;4972418;28;49901;-69
2023/03/11 10:51:46;;;;;;;;;9.75;8.75;;;;;10.11;92.36;100885.59;4971747;28;49703;-69
2023/03/11 10:54:33;;;;;;;;;8.50;8.50;;;;;10.38;91.68;100923.03;4972548;28;49820;-68
2023/03/11 10:57:05;;;;;;;;;6.00;6.00;;;;;10.31;88.29;100892.25;4970281;28;49891;-66
2023/03/11 10:59:33;;;;;;;;;8.50;7.00;;;;;10.50;88.15;100912.81;4970424;28;49795;-65
2023/03/11 11:02:21;;;;;;;;;12.00;10.75;;;;;10.24;85.54;100877.22;4971916;28;49871;-68
2023/03/11 11:04:48;;;;;;;;;10.75;10.25;;;;;10.29;88.69;100928.06;4972052;28;49747;-69
2023/03/11 11:07:32;;;;;;;;;7.50;7.50;;;;;10.28;87.25;100910.53;4964044;28;52549;-71
2023/03/11 11:10:13;;;;;;;;;13.00;8.75;;;;;10.44;87.31;100915.31;4966420;28;49775;-69
2023/03/11 11:12:55;;;;;;;;;9.00;9.00;;;;;10.61;87.18;100905.19;4954347;28;49793;-78
2023/03/11 11:15:55;;;;;;;;;6.75;5.25;;;;;10.75;85.97;100902.88;4946247;28;50244;-76
2023/03/11 11:18:26;;;;;;;;;4.00;4.00;;;;;10.83;84.71;100909.19;4970512;28;50579;-74
2023/03/11 11:21:06;;;;;;;;;8.75;8.00;;;;;10.79;85.33;100867.94;4970272;28;49863;-70
2023/03/11 11:23:37;;;;;;;;;6.75;6.75;;;;;11.12;82.23;100904.56;4972329;28;50049;-70
2023/03/11 11:26:24;;;;;;;;;6.00;6.00;;;;;11.18;78.59;100899.41;4947802;28;49845;-77
2023/03/11 11:29:13;;;;;;;;;7.00;6.25;;;;;11.02;79.60;100895.63;4953163;28;50838;-73
2023/03/11 11:31:44;;;;;;;;;8.00;8.00;;;;;11.13;77.91;100907.22;4945461;28;49807;-76
2023/03/11 11:34:33;;;;;;;;;7.75;7.75;;;;;11.15;77.27;100886.25;4952088;28;49685;-71
2023/03/11 11:37:03;;;;;;;;;2.75;1.25;;;;;11.23;75.32;100889.91;4949209;28;49941;-70
2023/03/11 11:39:35;;;;;;;;;6.50;5.50;;;;;11.24;71.70;100883.78;4949286;28;50960;-73
2023/03/11 11:42:02;;;;;;;;;7.00;5.75;;;;;11.09;72.87;100880.84;4951434;28;49905;-66
2023/03/11 11:44:33;;;;;;;;;7.75;6.00;;;;;11.11;75.44;100897.56;4954783;28;49647;-68
2023/03/11 11:47:08;;;;;;;;;7.50;6.75;;;;;10.82;74.90;100868.03;4962020;28;50146;-65
2023/03/11 11:49:36;;;;;;;;;6.50;6.00;;;;;10.78;75.74;100855.69;4968918;28;51639;-75
2023/03/11 11:52:19;;;;;;;;;7.00;6.00;;;;;10.82;76.38;100876.81;4967747;28;49481;-65
2023/03/11 11:54:47;;;;;;;;;9.00;7.75;;;;;10.70;74.83;100873.00;4962349;28;49471;-67
2023/03/11 11:57:15;;;;;;;;;7.25;6.50;;;;;10.71;75.92;100875.69;4955838;28;49838;-66
2023/03/11 11:59:41;;;;;;;;;6.75;5.50;;;;;10.58;76.75;100856.13;4980430;28;50244;-64
2023/03/11 12:02:49;;;;;;;;;6.00;5.75;;;;;10.78;75.79;100888.06;4971204;28;49657;-71
2023/03/11 12:05:18;;;;;;;;;5.75;5.75;;;;;11.05;77.80;100892.16;4934421;28;49935;-73
2023/03/11 12:07:53;;;;;;;;;7.50;7.25;;;;;11.19;72.79;100888.06;4965453;28;49616;-70
2023/03/11 12:10:27;;;;;;;;;9.00;7.75;;;;;11.20;72.05;100889.84;4969277;28;51039;-73
2023/03/11 12:13:20;;;;;;;;;6.25;6.00;;;;;11.05;72.65;100852.75;4950545;28;49857;-69
2023/03/11 12:16:14;;;;;;;;;9.00;7.25;;;;;11.20;72.87;100886.34;4963520;28;49866;-74
2023/03/11 12:19:03;;;;;;;;;5.50;5.25;;;;;11.43;72.42;100872.78;4972977;28;49678;-68
2023/03/11 12:21:41;;;;;;;;;8.00;8.00;;;;;11.63;71.96;100875.78;4953463;28;49988;-68
2023/03/11 12:24:41;;;;;;;;;5.50;5.50;;;;;11.81;70.48;100874.38;4953562;28;49987;-68
2023/03/11 12:27:24;;;;;;;;;6.75;6.75;;;;;11.96;68.39;100858.84;4954768;28;49918;-68
2023/03/11 12:29:56;;;;;;;;;5.75;4.50;;;;;12.00;68.46;100851.03;4970945;28;49743;-73
2023/03/11 12:32:33;;;;;;;;;4.50;4.00;;;;;12.30;66.70;100849.75;4960172;28;51186;-72
2023/03/11 12:35:19;;;;;;;;;5.00;5.00;;;;;12.37;66.27;100833.19;4964876;28;49779;-74
2023/03/11 12:37:45;;;;;;;;;6.00;6.00;;;;;12.59;65.84;100860.72;4950246;28;49807;-74
2023/03/11 12:40:41;;;;;;;;;3.75;3.75;;;;;12.69;64.59;100861.72;4973702;28;49800;-69
2023/03/11 12:43:28;;;;;;;;;8.00;7.50;;;;;12.71;63.96;100855.59;4963384;28;50976;-69
2023/03/11 12:45:58;;;;;;;;;9.00;8.50;;;;;12.87;64.58;100857.59;4951297;28;49635;-68
2023/03/11 12:48:44;;;;;;;;;10.25;8.75;;;;;12.81;62.87;100854.84;4968884;28;50087;-67
2023/03/11 12:51:25;;;;;;;;;9.50;5.75;;;;;12.88;62.20;100856.72;4956601;28;49808;-68
2023/03/11 12:53:51;;;;;;;;;6.50;6.50;;;;;12.45;62.11;100762.19;4970281;28;50055;-71
2023/03/11 12:56:26;;;;;;;;;6.00;5.50;;;;;13.01;62.38;100854.22;4964856;28;50189;-69
2023/03/11 12:59:12;;;;;;;;;8.00;6.50;;;;;12.99;62.54;100851.56;4965620;28;49848;-72
2023/03/11 13:01:47;;;;;;;;;6.00;6.00;;;;;12.72;60.46;100844.19;4970397;28;49934;-70
2023/03/11 13:04:35;;;;;;;;;4.00;4.00;;;;;12.85;60.48;100850.53;4958930;28;50818;-69
2023/03/11 13:07:06;;;;;;;;;5.50;4.25;;;;;12.95;59.13;100838.38;4969939;28;49872;-72
2023/03/11 13:09:31;;;;;;;;;6.00;4.50;;;;;12.88;59.62;100809.28;4956652;28;49683;-71
2023/03/11 13:11:57;;;;;;;;;5.50;5.50;;;;;13.00;58.34;100816.44;4955678;28;49728;-71
2023/03/11 13:14:32;;;;;;;;;3.75;3.75;;;;;13.22;58.44;100832.53;4956530;28;49861;-70
2023/03/11 13:17:29;;;;;;;;;5.50;5.50;;;;;13.33;58.77;100834.44;4969209;28;49881;-71
2023/03/11 13:19:56;;;;;;;;;5.00;5.00;;;;;13.26;57.41;100829.97;4976505;28;49679;-72
2023/03/11 13:22:50;;;;;;;;;4.75;4.25;;;;;13.46;57.01;100825.78;4974036;28;49881;-73
2023/03/11 13:25:34;;;;;;;;;7.50;7.50;;;;;13.48;56.99;100825.78;4951372;28;49932;-74
2023/03/11 13:28:23;;;;;;;;;6.25;4.75;;;;;13.38;54.85;100814.28;4954091;28;49930;-73
2023/03/11 13:31:03;;;;;;;;;5.00;5.00;;;;;13.34;56.44;100804.56;4951618;28;50071;-73
2023/03/11 13:34:11;;;;;;;;;4.50;4.50;;;;;13.56;56.71;100817.97;4952937;28;49788;-75
2023/03/11 13:37:24;;;;;;;;;6.50;5.00;;;;;13.60;56.42;100825.91;4956206;28;50950;-74
2023/03/11 13:40:17;;;;;;;;;5.00;4.50;;;;;13.39;55.89;100808.13;4908217;28;49987;-73
2023/03/11 13:42:50;;;;;;;;;7.00;7.00;;;;;13.31;55.10;100811.53;4976520;28;49778;-77
2023/03/11 13:45:29;;;;;;;;;4.00;3.75;;;;;12.89;55.18;100762.75;4979261;28;49773;-72
2023/03/11 13:48:02;;;;;;;;;3.00;2.00;;;;;13.14;56.39;100812.25;4963217;28;49909;-72
2023/03/11 13:50:36;;;;;;;;;5.00;5.00;;;;;13.04;56.67;100802.47;4965297;28;49650;-75
2023/03/11 13:53:08;;;;;;;;;5.50;4.25;;;;;13.21;56.48;100843.94;4971827;28;49731;-70
2023/03/11 13:55:39;;;;;;;;;5.00;4.00;;;;;12.90;56.82;100820.72;4958830;28;49835;-69
2023/03/11 13:58:18;;;;;;;;;6.00;5.75;;;;;12.80;57.63;100813.56;4955632;28;50748;-74
2023/03/11 14:00:53;;;;;;;;;5.75;5.75;;;;;12.90;57.47;100841.81;4955208;28;49711;-72
2023/03/11 14:03:22;;;;;;;;;9.00;6.50;;;;;12.73;56.85;100822.25;4953035;28;49982;-74
2023/03/11 14:05:54;;;;;;;;;4.00;4.00;;;;;12.87;56.96;100830.34;4959449;28;49772;-74
2023/03/11 14:08:27;;;;;;;;;4.25;4.25;;;;;12.61;57.48;100790.50;4968677;28;52644;-71
2023/03/11 14:11:13;;;;;;;;;5.75;5.75;;;;;12.82;58.28;100816.22;4961617;28;49756;-74
2023/03/11 14:13:42;;;;;;;;;5.75;5.75;;;;;13.09;57.98;100842.91;4963967;28;49597;-71
2023/03/11 14:16:23;;;;;;;;;9.50;8.50;;;;;13.24;58.36;100830.81;4964837;28;50097;-80
2023/03/11 14:19:14;;;;;;;;;8.00;8.00;;;;;13.26;57.95;100834.34;4960174;28;50808;-71
2023/03/11 14:21:45;;;;;;;;;9.25;7.00;;;;;13.07;57.80;100791.06;4956934;28;50262;-78
2023/03/11 14:24:18;;;;;;;;;5.25;5.25;;;;;13.21;57.99;100838.69;4960021;28;49819;-77
2023/03/11 14:26:46;;;;;;;;;8.25;5.00;;;;;13.03;57.76;100803.34;4960690;28;49799;-73
2023/03/11 14:29:17;;;;;;;;;8.50;8.50;;;;;13.21;57.51;100818.47;4954340;28;50491;-70
2023/03/11 14:31:45;;;;;;;;;5.75;4.75;;;;;13.41;57.46;100826.59;4957264;28;49929;-75
2023/03/11 14:34:10;;;;;;;;;10.00;7.75;;;;;13.39;57.81;100836.25;4969210;28;49577;-73
2023/03/11 14:36:49;;;;;;;;;7.50;7.50;;;;;13.32;57.76;100829.16;4973053;28;50145;-68
2023/03/11 14:39:33;;;;;;;;;5.25;4.25;;;;;13.34;58.23;100836.22;4957213;28;50584;-68
2023/03/11 14:42:06;;;;;;;;;7.50;5.75;;;;;13.31;58.76;100836.16;4952540;28;49864;-71
2023/03/11 14:44:36;;;;;;;;;5.25;4.25;;;;;13.26;57.72;100824.69;4947918;28;49895;-68
2023/03/11 14:47:10;;;;;;;;;9.00;8.50;;;;;13.36;58.32;100852.03;4966878;28;49910;-71
2023/03/11 14:49:37;;;;;;;;;6.00;6.00;;;;;13.30;57.70;100833.50;4971266;28;51183;-68
2023/03/11 14:52:10;;;;;;;;;8.00;7.00;;;;;13.30;57.84;100846.69;4972360;28;49923;-68
2023/03/11 14:54:36;;;;;;;;;9.25;7.00;;;;;13.01;58.47;100818.22;4967054;28;49855;-68
2023/03/11 14:57:21;;;;;;;;;10.25;8.25;;;;;13.21;58.32;100830.78;4988760;28;49363;-70
2023/03/11 14:59:50;;;;;;;;;4.50;4.50;;;;;13.17;56.89;100824.56;4965781;28;49664;-71
2023/03/11 15:03:11;;;;;;;;;7.75;6.75;;;;;13.33;57.62;100850.25;4956515;28;49806;-68
2023/03/11 15:06:13;;;;;;;;;7.25;4.50;;;;;13.28;56.89;100849.31;4925967;28;50052;-69
2023/03/11 15:08:50;;;;;;;;;8.00;5.00;;;;;13.31;58.43;100848.47;4924513;28;50206;-69
2023/03/11 15:11:15;;;;;;;;;6.50;6.50;;;;;13.19;58.64;100849.22;4949223;28;51051;-72
2023/03/11 15:13:45;;;;;;;;;6.25;6.25;;;;;13.21;59.58;100836.94;4954228;28;49879;-68
2023/03/11 15:16:30;;;;;;;;;7.25;5.75;;;;;13.07;58.92;100842.03;4957814;28;49878;-66
2023/03/11 15:18:59;;;;;;;;;5.00;5.00;;;;;13.04;59.82;100839.34;4954290;28;49593;-70
2023/03/11 15:21:24;;;;;;;;;10.25;9.25;;;;;12.39;59.80;100748.97;4946947;28;50545;-68
2023/03/11 15:24:01;;;;;;;;;5.00;5.00;;;;;12.83;60.19;100847.84;4944869;28;49982;-69
2023/03/11 15:26:30;;;;;;;;;5.00;5.00;;;;;12.77;61.21;100855.69;4953697;28;50098;-78
2023/03/11 15:29:15;;;;;;;;;4.00;4.00;;;;;12.43;60.69;100806.06;4953623;28;49605;-69
2023/03/11 15:31:46;;;;;;;;;5.00;4.50;;;;;12.52;62.04;100822.84;4969295;28;50393;-69
2023/03/11 15:34:24;;;;;;;;;6.50;6.50;;;;;12.42;62.32;100793.75;4970561;28;49769;-73
2023/03/11 15:36:49;;;;;;;;;5.00;5.00;;;;;12.73;61.96;100851.22;4971693;28;49901;-69
2023/03/11 15:39:19;;;;;;;;;9.00;7.50;;;;;12.72;62.59;100854.72;4962513;28;49761;-69
2023/03/11 15:41:47;;;;;;;;;6.00;4.75;;;;;12.30;63.01;100808.50;4951561;28;49964;-76
2023/03/11 15:44:29;;;;;;;;;5.25;5.25;;;;;12.69;62.88;100851.19;4950562;28;49790;-75
2023/03/11 15:46:58;;;;;;;;;4.25;4.00;;;;;12.60;63.33;100838.78;4952062;28;49723;-76
2023/03/11 15:49:23;;;;;;;;;7.75;7.75;;;;;12.54;63.57;100826.38;4952036;28;50157;-72
2023/03/11 15:51:48;;;;;;;;;5.00;5.00;;;;;11.89;62.36;100738.63;4950413;28;51703;-69
2023/03/11 15:54:14;;;;;;;;;8.25;8.25;;;;;12.49;63.03;100817.56;4951082;28;61283;-73
2023/03/11 15:56:40;;;;;;;;;7.25;7.25;;;;;12.52;62.24;100848.31;4951365;28;50181;-70
2023/03/11 15:59:05;;;;;;;;;7.50;5.25;;;;;12.40;63.78;100803.38;4951755;28;49869;-72
2023/03/11 16:01:31;;;;;;;;;6.50;6.25;;;;;11.68;63.28;100691.81;4951863;28;50036;-72
2023/03/11 16:03:56;;;;;;;;;6.25;6.00;;;;;12.21;64.41;100800.47;4952803;28;49696;-72
2023/03/11 16:06:22;;;;;;;;;9.25;4.50;;;;;12.06;63.51;100789.72;4955855;28;49780;-70
2023/03/11 16:08:50;;;;;;;;;12.25;8.50;;;;;12.10;64.12;100793.28;4952560;28;49782;-69
2023/03/11 16:11:17;;;;;;;;;3.00;3.00;;;;;12.19;64.77;100819.75;4952424;28;51809;-69
2023/03/11 16:13:43;;;;;;;;;4.00;4.00;;;;;12.29;64.32;100827.81;4952760;28;49884;-69
2023/03/11 16:16:16;;;;;;;;;6.50;6.50;;;;;12.36;64.02;100828.78;4952503;28;49584;-72
2023/03/11 16:18:41;;;;;;;;;7.25;5.00;;;;;11.99;65.26;100772.09;4952829;28;49819;-78
2023/03/11 16:21:13;;;;;;;;;5.75;5.75;;;;;12.04;65.77;100797.59;4951538;28;50704;-70
2023/03/11 16:23:38;;;;;;;;;4.25;4.25;;;;;12.24;66.07;100821.56;4950584;28;50007;-70
2023/03/11 16:26:04;;;;;;;;;7.00;5.00;;;;;12.09;66.11;100802.06;4953831;28;50011;-72
2023/03/11 16:28:30;;;;;;;;;6.50;6.25;;;;;11.71;65.73;100742.69;4951089;28;49850;-70
2023/03/11 16:30:55;;;;;;;;;5.75;5.75;;;;;12.13;66.50;100823.16;4950692;28;49862;-76
2023/03/11 16:33:21;;;;;;;;;4.25;4.25;;;;;11.62;65.90;100750.44;4952403;28;49830;-66
2023/03/11 16:35:47;;;;;;;;;5.00;4.00;;;;;11.65;66.54;100774.13;4951370;28;49772;-70
2023/03/11 16:38:12;;;;;;;;;7.75;7.50;;;;;11.56;67.34;100780.97;4950133;28;49898;-73
2023/03/11 16:40:37;;;;;;;;;7.25;6.50;;;;;11.57;67.98;100790.63;4950714;28;51373;-78
2023/03/11 16:43:08;;;;;;;;;5.50;3.75;;;;;11.60;68.81;100824.91;4949627;28;49863;-78
2023/03/11 16:45:34;;;;;;;;;10.50;4.00;;;;;11.57;71.28;100824.81;4951939;28;49752;-78
2023/03/11 16:48:00;;;;;;;;;8.00;6.00;;;;;11.35;72.12;100789.38;4965986;28;50048;-71
2023/03/11 16:50:26;;;;;;;;;4.25;4.25;;;;;11.60;73.36;100825.78;4950719;28;50690;-77
2023/03/11 16:52:54;;;;;;;;;8.00;5.00;;;;;10.88;74.51;100713.19;4955137;28;49850;-73
2023/03/11 16:55:21;;;;;;;;;7.00;4.00;;;;;10.44;75.56;100649.38;4951702;28;49708;-75
2023/03/11 16:57:46;;;;;;;;;5.25;5.00;;;;;10.71;76.23;100717.25;4954940;28;49895;-78
2023/03/11 17:00:13;;;;;;;;;5.25;4.75;;;;;11.30;77.73;100823.47;4970806;28;50876;-69
2023/03/11 17:02:40;;;;;;;;;7.25;5.25;;;;;11.31;78.79;100809.47;4964662;28;50013;-76
2023/03/11 17:05:07;;;;;;;;;7.00;7.00;;;;;11.10;78.45;100781.06;4959852;28;49849;-78
2023/03/11 17:07:33;;;;;;;;;11.00;8.75;;;;;11.37;79.79;100843.75;4952440;28;49819;-69
2023/03/11 17:09:59;;;;;;;;;7.50;5.00;;;;;11.30;81.10;100836.63;4956417;28;49806;-79
2023/03/11 17:12:26;;;;;;;;;6.75;5.25;;;;;10.51;81.79;100730.84;4951556;28;49839;-68
2023/03/11 17:14:52;;;;;;;;;7.00;7.00;;;;;11.22;82.88;100853.97;4951590;28;49679;-72
2023/03/11 17:17:18;;;;;;;;;6.00;5.00;;;;;10.47;84.51;100736.91;4952433;28;49783;-68
2023/03/11 17:19:44;;;;;;;;;5.00;5.00;;;;;10.54;85.72;100765.06;4951714;28;50760;-72
2023/03/11 17:22:10;;;;;;;;;5.25;4.00;;;;;10.73;87.35;100810.06;4951914;28;49753;-79
2023/03/11 17:24:36;;;;;;;;;8.00;7.75;;;;;11.00;87.76;100873.69;4951045;28;49851;-69
2023/03/11 17:27:03;;;;;;;;;5.25;4.00;;;;;9.98;89.54;100695.59;4951671;28;50016;-75
2023/03/11 17:29:28;;;;;;;;;7.00;7.00;;;;;10.44;89.57;100785.84;4951429;28;49885;-69
2023/03/11 17:31:53;;;;;;;;;6.50;5.50;;;;;10.54;90.25;100808.81;4950064;28;50010;-69
2023/03/11 17:34:19;;;;;;;;;8.00;8.00;;;;;10.85;90.81;100868.09;4951149;28;50041;-69
2023/03/11 17:36:44;;;;;;;;;4.00;4.00;;;;;10.79;92.69;100879.34;4952076;28;50089;-75
2023/03/11 17:39:10;;;;;;;;;5.00;5.00;;;;;10.13;92.54;100756.22;4952636;28;50720;-73
2023/03/11 17:41:35;;;;;;;;;8.00;7.50;;;;;10.04;93.04;100750.81;4952672;28;49852;-75
2023/03/11 17:44:00;;;;;;;;;6.00;6.00;;;;;10.32;95.25;100816.16;4951278;28;58610;-73
2023/03/11 17:46:26;;;;;;;;;8.00;8.00;;;;;10.55;95.64;100865.69;4953246;28;49809;-70
2023/03/11 17:48:51;;;;;;;;;4.25;4.25;;;;;10.43;95.50;100847.94;4953463;28;50545;-70
2023/03/11 17:51:20;;;;;;;;;5.25;5.25;;;;;10.17;96.59;100813.19;4955392;28;49557;-71
2023/03/11 17:53:46;;;;;;;;;8.75;7.75;;;;;10.50;96.81;100881.31;4952192;28;50034;-77
2023/03/11 17:56:14;;;;;;;;;7.00;7.00;;;;;10.49;97.58;100879.56;4955078;28;49961;-72
2023/03/11 17:58:40;;;;;;;;;7.00;7.00;;;;;10.47;97.54;100890.88;4954753;28;49875;-72
2023/03/11 18:01:08;;;;;;;;;6.75;6.75;;;;;10.47;98.58;100881.25;4966176;28;49898;-71
2023/03/11 18:03:33;;;;;;;;;8.50;6.50;;;;;9.66;98.91;100750.78;4972526;28;49795;-69
2023/03/11 18:06:01;;;;;;;;;10.25;8.00;;;;;10.19;99.17;100840.34;4971517;28;50068;-70
2023/03/11 18:08:27;;;;;;;;;4.00;4.00;;;;;9.66;99.28;100739.44;4988116;28;51709;-77
2023/03/11 18:10:56;;;;;;;;;8.00;8.00;;;;;10.21;99.88;100848.22;4971950;28;49783;-69
2023/03/11 18:13:22;;;;;;;;;7.25;6.25;;;;;9.05;100.00;100669.78;4973268;28;49826;-70
2023/03/11 18:15:59;;;;;;;;;11.75;9.00;;;;;9.89;100.00;100805.50;4973323;28;49863;-78
2023/03/11 18:18:25;;;;;;;;;7.00;7.00;;;;;10.27;100.00;100880.78;4971701;28;52281;-78
2023/03/11 18:20:50;;;;;;;;;7.00;6.50;;;;;9.63;100.00;100776.91;4972816;28;50120;-72
2023/03/11 18:23:15;;;;;;;;;10.00;10.00;;;;;10.21;100.00;100875.34;4973165;28;50085;-71
2023/03/11 18:25:41;;;;;;;;;6.75;6.75;;;;;9.62;100.00;100796.13;4973306;28;49754;-77
2023/03/11 18:28:06;;;;;;;;;9.75;7.75;;;;;9.94;100.00;100837.97;4972744;28;57150;-69
2023/03/11 18:30:35;;;;;;;;;12.50;12.25;;;;;10.20;100.00;100897.19;4973064;28;50065;-75
2023/03/11 18:33:00;;;;;;;;;9.50;6.00;;;;;9.55;100.00;100809.91;4971666;28;49866;-70
2023/03/11 18:35:26;;;;;;;;;11.25;8.25;;;;;10.06;100.00;100882.00;4972561;28;49846;-70
2023/03/11 18:37:51;;;;;;;;;11.50;9.50;;;;;8.83;100.00;100689.28;4972493;28;49756;-78
2023/03/11 18:40:16;;;;;;;;;5.00;5.00;;;;;9.62;100.00;100821.44;4973014;28;49654;-76
2023/03/11 18:42:42;;;;;;;;;12.25;10.25;;;;;9.99;100.00;100889.69;4972876;28;49641;-76
2023/03/11 18:45:09;;;;;;;;;8.25;7.00;;;;;9.99;100.00;100891.44;4973100;28;49593;-78
2023/03/11 18:47:34;;;;;;;;;8.25;6.75;;;;;9.99;100.00;100889.69;4972655;28;50204;-75
2023/03/11 18:49:59;;;;;;;;;8.25;8.25;;;;;10.08;100.00;100946.75;4972184;28;49930;-79
2023/03/11 18:52:25;;;;;;;;;10.50;9.00;;;;;10.12;100.00;100931.97;4972319;28;49800;-75
2023/03/11 18:54:50;;;;;;;;;9.25;8.25;;;;;9.53;100.00;100815.94;4960251;28;49853;-78
2023/03/11 18:57:15;;;;;;;;;8.50;8.00;;;;;9.31;100.00;100777.84;4951784;28;51197;-72
2023/03/11 18:59:41;;;;;;;;;8.50;8.50;;;;;9.01;100.00;100730.78;4945215;28;49871;-68
2023/03/11 19:02:08;;;;;;;;;12.25;10.50;;;;;9.52;100.00;100843.00;4957170;28;49858;-75
2023/03/11 19:04:34;;;;;;;;;11.75;8.25;;;;;9.84;100.00;100857.81;4974600;28;50038;-76
2023/03/11 19:06:59;;;;;;;;;11.50;11.50;;;;;9.06;100.00;100726.53;4986475;28;50320;-70
2023/03/11 19:09:25;;;;;;;;;12.50;9.25;;;;;9.89;100.00;100882.44;4971292;28;49184;-75
2023/03/11 19:11:50;;;;;;;;;8.25;8.25;;;;;9.63;100.00;100828.44;4968263;28;49864;-68
2023/03/11 19:14:15;;;;;;;;;9.50;8.75;;;;;9.99;100.00;100888.81;4962274;28;49768;-73
2023/03/11 19:16:40;;;;;;;;;8.00;8.00;;;;;9.80;100.00;100850.75;4965503;28;49893;-68
2023/03/11 19:19:06;;;;;;;;;14.25;10.75;;;;;10.01;100.00;100881.84;4973710;28;49533;-68
2023/03/11 19:21:31;;;;;;;;;12.00;10.00;;;;;9.96;100.00;100881.75;4979119;28;49562;-67
2023/03/11 19:23:57;;;;;;;;;17.50;11.25;;;;;10.03;100.00;100896.78;4973759;28;54817;-73
2023/03/11 19:26:23;;;;;;;;;13.00;12.50;;;;;10.04;100.00;100900.31;4977268;28;50282;-75
2023/03/11 19:28:48;;;;;;;;;9.50;8.50;;;;;9.97;100.00;100901.00;4982582;28;49373;-74
2023/03/11 19:31:14;;;;;;;;;16.50;13.00;;;;;9.87;100.00;100894.63;4980786;28;49398;-81
2023/03/11 19:33:40;;;;;;;;;14.25;12.50;;;;;9.98;100.00;100916.75;4985262;28;49730;-69
2023/03/11 19:36:07;;;;;;;;;13.25;12.25;;;;;9.90;100.00;100899.94;4970698;28;49833;-69
2023/03/11 19:38:33;;;;;;;;;12.75;12.00;;;;;9.92;100.00;100906.09;4961906;28;49597;-69